createdAt,value
2018-11-23T00:01:30.392Z,62.20
2018-11-23T00:07:35.050Z,67.10
2018-11-23T00:13:39.690Z,65.20
2018-11-23T00:19:44.694Z,61.97
2018-11-23T00:25:49.958Z,67.77
2018-11-23T00:31:55.386Z,65.60
2018-11-23T00:38:00.729Z,79.10
2018-11-23T00:44:06.268Z,63.20
2018-11-23T00:50:13.797Z,78.77
2018-11-23T00:56:19.551Z,75.97
2018-11-23T01:02:24.287Z,79.43
2018-11-23T01:08:29.845Z,74.97
2018-11-23T01:14:35.234Z,79.97
2018-11-23T01:20:39.956Z,60.20
2018-11-23T01:26:44.620Z,75.03
2018-11-23T01:32:49.394Z,81.17
2018-11-23T01:38:54.064Z,83.37
2018-11-23T01:44:58.805Z,73.67
2018-11-23T01:51:03.491Z,73.97
2018-11-23T01:57:08.229Z,80.07
2018-11-23T02:03:12.917Z,80.17
2018-11-23T02:09:17.604Z,88.27
2018-11-23T02:15:23.205Z,88.77
2018-11-23T02:21:27.860Z,73.90
2018-11-23T02:27:32.571Z,91.83
2018-11-23T02:33:40.327Z,91.30
2018-11-23T02:39:45.444Z,81.73
2018-11-23T02:45:50.468Z,76.63
2018-11-23T02:51:55.863Z,88.80
2018-11-23T02:58:00.512Z,77.70
2018-11-23T03:04:05.804Z,83.70
2018-11-23T03:10:12.299Z,87.43
2018-11-23T03:16:17.034Z,96.17
2018-11-23T03:22:21.750Z,90.13
2018-11-23T03:28:26.400Z,89.23
2018-11-23T03:34:31.048Z,88.37
2018-11-23T03:40:35.708Z,83.43
2018-11-23T03:46:40.367Z,86.07
2018-11-23T03:52:45.499Z,96.10
2018-11-23T03:58:51.299Z,93.63
2018-11-23T04:04:56.849Z,83.30
2018-11-23T04:11:01.495Z,77.50
2018-11-23T04:17:06.837Z,71.80
2018-11-23T04:23:11.469Z,82.03
2018-11-23T04:29:16.113Z,75.97
2018-11-23T04:35:21.595Z,79.80
2018-11-23T04:41:26.245Z,66.73
2018-11-23T04:47:31.143Z,78.20
2018-11-23T04:53:35.822Z,69.60
2018-11-23T04:59:40.473Z,81.03
2018-11-23T05:05:45.115Z,85.00
2018-11-23T05:11:50.290Z,85.47
2018-11-23T05:17:54.578Z,81.27
2018-11-23T05:23:59.755Z,75.23
2018-11-23T05:30:05.016Z,77.33
2018-11-23T05:36:10.396Z,70.80
2018-11-23T05:42:15.275Z,64.00
2018-11-23T05:48:26.786Z,64.07
2018-11-23T05:54:25.885Z,76.00
2018-11-23T06:00:31.690Z,72.70
2018-11-23T06:06:42.267Z,71.57
2018-11-23T06:12:43.133Z,73.60
2018-11-23T06:18:48.199Z,71.13
2018-11-23T06:24:52.895Z,71.40
2018-11-23T06:30:57.562Z,63.33
2018-11-23T06:37:02.267Z,59.80
2018-11-23T06:43:07.440Z,67.87
2018-11-23T06:49:12.141Z,65.27
2018-11-23T06:55:16.856Z,67.60
2018-11-23T07:01:21.518Z,64.43
2018-11-23T07:07:26.550Z,75.67
2018-11-23T07:13:32.810Z,68.50
2018-11-23T07:19:37.570Z,73.37
2018-11-23T07:25:42.284Z,76.73
2018-11-23T07:31:47.062Z,82.83
2018-11-23T07:37:52.593Z,75.50
2018-11-23T07:43:57.925Z,71.20
2018-11-23T07:50:02.648Z,79.53
2018-11-23T07:56:07.730Z,63.33
2018-11-23T08:02:13.542Z,93.43
2018-11-23T08:08:18.282Z,74.60
2018-11-23T08:14:23.821Z,64.03
2018-11-23T08:20:28.481Z,74.23
2018-11-23T08:26:33.128Z,69.83
2018-11-23T08:32:38.103Z,95.90
2018-11-23T08:38:42.775Z,67.87
2018-11-23T08:44:47.859Z,66.37
2018-11-23T08:50:52.611Z,105.83
2018-11-23T08:56:57.611Z,55.00
2018-11-23T09:03:03.483Z,51.50
2018-11-23T09:09:11.491Z,56.23
2018-11-23T09:15:17.531Z,48.73
2018-11-23T09:21:21.860Z,42.83
2018-11-23T09:27:26.879Z,48.60
2018-11-23T09:33:31.561Z,62.73
2018-11-23T09:39:37.286Z,48.63
2018-11-23T09:45:41.910Z,49.70
2018-11-23T09:51:46.627Z,62.13
2018-11-23T09:57:51.964Z,45.83
2018-11-23T10:03:56.674Z,48.80
2018-11-23T10:10:01.326Z,37.77
2018-11-23T10:16:06.032Z,40.17
2018-11-23T10:22:11.333Z,37.33
2018-11-23T10:28:16.399Z,36.90
2018-11-23T10:34:21.045Z,40.03
2018-11-23T10:40:27.455Z,38.90
2018-11-23T10:46:32.286Z,35.27
2018-11-23T10:52:37.391Z,40.50
2018-11-23T10:58:42.056Z,38.03
2018-11-23T11:04:53.806Z,35.40
2018-11-23T11:10:58.850Z,34.23
2018-11-23T11:17:03.652Z,37.17
2018-11-23T11:23:08.387Z,38.60
2018-11-23T11:29:13.514Z,34.27
2018-11-23T11:35:18.192Z,38.73
2018-11-23T11:41:22.944Z,36.53
2018-11-23T11:47:28.279Z,37.73
2018-11-23T11:53:32.943Z,36.53
2018-11-23T11:59:37.628Z,31.17
2018-11-23T12:05:42.656Z,39.53
2018-11-23T12:11:47.950Z,35.03
2018-11-23T12:17:53.059Z,38.20
2018-11-23T12:23:58.192Z,36.57
2018-11-23T12:30:04.160Z,31.40
2018-11-23T12:36:08.966Z,34.10
2018-11-23T12:42:13.704Z,33.33
2018-11-23T12:48:18.487Z,37.07
2018-11-23T12:54:23.260Z,30.00
2018-11-23T13:00:29.067Z,33.80
2018-11-23T13:06:34.116Z,32.40
2018-11-23T13:12:39.203Z,30.00
2018-11-23T13:18:44.150Z,36.10
2018-11-23T13:24:49.281Z,39.33
2018-11-23T13:30:54.014Z,34.17
2018-11-23T13:36:58.711Z,35.83
2018-11-23T13:43:03.457Z,37.17
2018-11-23T13:49:08.185Z,39.30
2018-11-23T13:55:13.718Z,37.10
2018-11-23T14:01:18.852Z,35.97
2018-11-23T14:07:23.596Z,32.73
2018-11-23T14:13:28.379Z,35.63
2018-11-23T14:19:33.098Z,45.40
2018-11-23T14:25:38.207Z,40.23
2018-11-23T14:31:42.930Z,37.27
2018-11-23T14:37:48.904Z,43.77
2018-11-23T14:43:54.111Z,46.63
2018-11-23T14:49:59.605Z,39.50
2018-11-23T14:56:04.328Z,36.67
2018-11-23T15:02:08.991Z,39.53
2018-11-23T15:08:13.791Z,44.87
2018-11-23T15:14:18.473Z,50.27
2018-11-23T15:20:26.840Z,44.97
2018-11-23T15:26:31.537Z,37.67
2018-11-23T15:32:36.657Z,44.90
2018-11-23T15:38:41.785Z,45.87
2018-11-23T15:44:46.516Z,57.47
2018-11-23T15:50:51.535Z,55.10
2018-11-23T15:56:56.237Z,45.57
2018-11-23T16:03:01.001Z,36.90
2018-11-23T16:09:10.082Z,39.90
2018-11-23T16:15:14.789Z,41.13
2018-11-23T16:21:19.822Z,43.37
2018-11-23T16:27:24.635Z,41.83
2018-11-23T16:33:29.320Z,47.93
2018-11-23T16:39:34.065Z,42.73
2018-11-23T16:45:39.319Z,41.83
2018-11-23T16:51:44.414Z,40.33
2018-11-23T16:57:50.962Z,38.70
2018-11-23T17:03:55.637Z,36.10
2018-11-23T17:10:00.428Z,41.47
2018-11-23T17:16:05.435Z,46.17
2018-11-23T17:22:10.898Z,44.90
2018-11-23T17:28:16.197Z,40.50
2018-11-23T17:34:20.898Z,46.10
2018-11-23T17:40:27.057Z,47.17
2018-11-23T17:46:32.675Z,49.57
2018-11-23T17:52:38.267Z,47.47
2018-11-23T17:58:43.201Z,42.70
2018-11-23T18:04:48.196Z,50.27
2018-11-23T18:10:53.627Z,58.60
2018-11-23T18:16:58.549Z,57.83
2018-11-23T18:23:03.949Z,48.37
2018-11-23T18:29:08.962Z,50.93
2018-11-23T18:35:15.408Z,73.00
2018-11-23T18:41:20.541Z,58.93
2018-11-23T18:47:25.595Z,48.93
2018-11-23T18:53:30.301Z,49.03
2018-11-23T18:59:35.512Z,44.80
2018-11-23T19:05:40.662Z,43.07
2018-11-23T19:11:45.393Z,49.43
2018-11-23T19:17:50.146Z,54.23
2018-11-23T19:23:54.908Z,46.87
2018-11-23T19:29:59.991Z,48.33
2018-11-23T19:36:05.712Z,52.27
2018-11-23T19:42:10.457Z,49.30
2018-11-23T19:48:15.112Z,51.67
2018-11-23T19:54:20.535Z,53.27
2018-11-23T20:00:27.787Z,60.07
2018-11-23T20:06:32.508Z,57.80
2018-11-23T20:12:37.325Z,58.47
2018-11-23T20:18:42.801Z,58.17
2018-11-23T20:24:47.549Z,59.40
2018-11-23T20:30:52.996Z,62.07
2018-11-23T20:36:57.768Z,59.03
2018-11-23T20:43:02.602Z,68.47
2018-11-23T20:49:07.478Z,65.30
2018-11-23T20:55:24.628Z,63.67
2018-11-23T21:01:29.404Z,61.57
2018-11-23T21:07:34.511Z,62.07
2018-11-23T21:13:39.291Z,73.63
2018-11-23T21:19:44.025Z,83.83
2018-11-23T21:25:49.356Z,66.57
2018-11-23T21:31:54.404Z,111.90
2018-11-23T21:37:59.218Z,63.73
2018-11-23T21:44:04.337Z,106.57
2018-11-23T21:50:15.367Z,76.53
2018-11-23T21:56:20.442Z,150.80
2018-11-23T22:02:25.620Z,115.80
2018-11-23T22:08:30.960Z,77.30
2018-11-23T22:14:35.808Z,91.73
2018-11-23T22:20:40.570Z,65.17
2018-11-23T22:26:45.280Z,76.10
2018-11-23T22:32:50.898Z,60.80
2018-11-23T22:38:55.639Z,55.17
2018-11-23T22:45:00.362Z,66.50
2018-11-23T22:51:05.401Z,61.17
2018-11-23T22:57:11.723Z,105.87
2018-11-23T23:03:15.702Z,130.83
2018-11-23T23:09:20.754Z,159.93
2018-11-23T23:15:25.823Z,188.13
2018-11-23T23:21:30.564Z,191.50
2018-11-23T23:27:36.304Z,266.53
2018-11-23T23:33:41.026Z,303.77
2018-11-23T23:39:46.052Z,219.47
2018-11-23T23:45:51.093Z,218.77
2018-11-23T23:51:55.836Z,263.60
2018-11-23T23:58:01.476Z,329.70
